Time;durP1;ratioP1;P1;durP2;ratioP2;P2;SDS_P1;SDS_P2;PMS_P1;PMS_P2;Temp;Humidity;BMP_temperature;BMP_pressure;BME280_temperature;BME280_humidity;BME280_pressure;Samples;Min_cycle;Max_cycle;Signal;HPM_P1;HPM_P2
2021/09/20 00:00:22;;;;;;;1.70;1.60;;;17.00;99.90;;;;;;5026759;28;20197;-68
2021/09/20 00:02:48;;;;;;;3.50;1.80;;;17.00;99.90;;;;;;5026710;28;20188;-68
2021/09/20 00:05:13;;;;;;;1.90;1.67;;;17.10;99.90;;;;;;5025555;28;20671;-69
2021/09/20 00:07:42;;;;;;;1.80;1.33;;;17.00;99.90;;;;;;5023934;28;20595;-67
2021/09/20 00:10:09;;;;;;;2.70;1.60;;;17.00;99.90;;;;;;5008297;28;20554;-68
2021/09/20 00:12:35;;;;;;;2.73;1.80;;;16.90;99.90;;;;;;5007670;28;20439;-69
2021/09/20 00:15:01;;;;;;;1.70;1.40;;;17.00;99.90;;;;;;5024365;28;20490;-68
2021/09/20 00:17:27;;;;;;;1.47;1.37;;;17.00;99.90;;;;;;5026257;28;20201;-68
2021/09/20 00:19:52;;;;;;;2.10;1.90;;;17.00;99.90;;;;;;5023033;28;20201;-67
2021/09/20 00:22:18;;;;;;;2.13;1.93;;;17.00;99.90;;;;;;5024558;28;20192;-68
2021/09/20 00:24:44;;;;;;;1.70;1.60;;;16.90;99.90;;;;;;5024309;28;20193;-68
2021/09/20 00:27:12;;;;;;;3.27;1.67;;;17.00;99.90;;;;;;5022225;28;20216;-68
2021/09/20 00:29:38;;;;;;;2.13;1.60;;;17.20;99.90;;;;;;5028106;28;20604;-68
2021/09/20 00:32:04;;;;;;;2.90;2.00;;;17.00;99.90;;;;;;5023811;28;20477;-68
2021/09/20 00:34:39;;;;;;;2.97;2.57;;;17.00;99.90;;;;;;5006643;28;20423;-68
2021/09/20 00:37:05;;;;;;;2.20;2.00;;;16.90;99.90;;;;;;5020885;28;20431;-68
2021/09/20 00:39:30;;;;;;;1.73;1.60;;;16.90;99.90;;;;;;4990182;28;20435;-68
2021/09/20 00:41:56;;;;;;;4.23;1.80;;;17.00;99.90;;;;;;5025514;28;20200;-68
2021/09/20 00:44:22;;;;;;;2.27;2.07;;;17.00;99.90;;;;;;5026566;28;20563;-68
2021/09/20 00:46:47;;;;;;;1.90;1.70;;;16.90;99.90;;;;;;5024861;28;20227;-69
2021/09/20 00:49:13;;;;;;;3.10;1.93;;;17.00;99.90;;;;;;5025138;28;20196;-69
2021/09/20 00:51:39;;;;;;;2.10;1.90;;;16.90;99.90;;;;;;5006612;28;20176;-68
2021/09/20 00:54:04;;;;;;;1.70;1.60;;;16.90;99.90;;;;;;5022898;28;20431;-69
2021/09/20 00:56:31;;;;;;;7.27;1.87;;;17.00;99.90;;;;;;5025639;28;20223;-69
2021/09/20 00:58:56;;;;;;;1.87;1.77;;;16.90;99.90;;;;;;5022973;28;20231;-69
2021/09/20 01:01:23;;;;;;;2.10;1.90;;;16.90;99.90;;;;;;5020900;28;20447;-68
2021/09/20 01:03:48;;;;;;;2.17;1.70;;;17.00;99.90;;;;;;5022920;28;20599;-68
2021/09/20 01:06:14;;;;;;;2.27;2.07;;;16.90;99.90;;;;;;5007878;28;20427;-69
2021/09/20 01:08:40;;;;;;;2.50;2.23;;;17.00;99.90;;;;;;5025672;28;20193;-68
2021/09/20 01:11:06;;;;;;;2.20;2.00;;;17.00;99.90;;;;;;5022649;28;20250;-68
2021/09/20 01:13:31;;;;;;;2.27;2.07;;;16.90;99.90;;;;;;5024353;28;20212;-69
2021/09/20 01:15:57;;;;;;;2.27;2.07;;;17.00;99.90;;;;;;5020026;28;20263;-68
2021/09/20 01:18:23;;;;;;;3.07;1.90;;;17.00;99.90;;;;;;5022834;28;20207;-69
2021/09/20 01:20:49;;;;;;;2.30;2.10;;;16.90;99.90;;;;;;5023028;28;20243;-70
2021/09/20 01:23:15;;;;;;;2.83;1.87;;;16.90;99.90;;;;;;5026042;28;20216;-69
2021/09/20 01:25:42;;;;;;;2.60;1.97;;;16.90;99.90;;;;;;5025344;28;20443;-67
2021/09/20 01:28:08;;;;;;;3.10;2.03;;;17.00;99.90;;;;;;5026052;28;20490;-68
2021/09/20 01:30:34;;;;;;;2.23;2.03;;;17.10;99.90;;;;;;5006031;28;20721;-68
2021/09/20 01:33:00;;;;;;;2.30;2.10;;;17.10;99.90;;;;;;5023872;28;20434;-69
2021/09/20 01:35:29;;;;;;;1.80;1.70;;;17.00;99.90;;;;;;5005992;28;20200;-69
2021/09/20 01:37:55;;;;;;;2.27;2.10;;;17.10;99.90;;;;;;5023743;28;20266;-69
2021/09/20 01:40:28;;;;;;;2.40;2.17;;;17.10;99.90;;;;;;5006434;28;20874;-68
2021/09/20 01:42:53;;;;;;;3.30;2.27;;;17.20;99.90;;;;;;5022258;28;20900;-68
2021/09/20 01:45:19;;;;;;;2.27;2.07;;;17.10;99.90;;;;;;5004898;28;20439;-68
2021/09/20 01:47:46;;;;;;;4.57;2.60;;;17.10;99.90;;;;;;5024568;28;20269;-68
2021/09/20 01:50:13;;;;;;;2.57;2.20;;;16.90;99.90;;;;;;5024783;28;20209;-69
2021/09/20 01:52:43;;;;;;;3.33;3.03;;;16.80;99.90;;;;;;5006047;28;20423;-68
2021/09/20 01:55:10;;;;;;;3.20;2.50;;;16.70;99.90;;;;;;5025008;28;20431;-68
2021/09/20 01:57:36;;;;;;;2.90;2.67;;;16.70;99.90;;;;;;5023555;28;20500;-68
2021/09/20 02:00:05;;;;;;;2.87;2.67;;;16.70;99.90;;;;;;5023058;28;21017;-68
2021/09/20 02:02:30;;;;;;;3.00;2.63;;;16.70;99.90;;;;;;4989937;28;20191;-68
2021/09/20 02:04:56;;;;;;;4.07;2.83;;;16.60;99.90;;;;;;5020662;28;20435;-69
2021/09/20 02:07:22;;;;;;;3.63;3.30;;;16.70;99.90;;;;;;5021098;28;20902;-68
2021/09/20 02:09:50;;;;;;;3.37;2.70;;;16.70;99.90;;;;;;5021303;28;20668;-69
2021/09/20 02:12:16;;;;;;;2.53;2.33;;;16.90;99.90;;;;;;5027042;28;20242;-69
2021/09/20 02:14:42;;;;;;;2.67;2.47;;;16.70;99.90;;;;;;5027528;28;20786;-69
2021/09/20 02:17:08;;;;;;;2.60;2.40;;;16.60;99.90;;;;;;5028900;28;20453;-69
2021/09/20 02:19:34;;;;;;;2.90;2.70;;;16.50;99.90;;;;;;5024421;28;20196;-69
2021/09/20 02:21:59;;;;;;;3.93;2.90;;;16.70;99.90;;;;;;5025636;28;20373;-69
2021/09/20 02:24:25;;;;;;;3.07;2.60;;;16.70;99.90;;;;;;5011459;28;20434;-68
2021/09/20 02:26:51;;;;;;;3.40;2.50;;;16.70;99.90;;;;;;5024779;28;20220;-68
2021/09/20 02:29:16;;;;;;;2.80;2.60;;;16.80;99.90;;;;;;5025714;28;20728;-68
2021/09/20 02:31:42;;;;;;;3.00;2.80;;;16.80;99.90;;;;;;5025963;28;20208;-68
2021/09/20 02:34:08;;;;;;;3.10;2.53;;;16.90;99.90;;;;;;5026777;28;20272;-69
2021/09/20 02:36:33;;;;;;;3.17;2.57;;;16.90;99.90;;;;;;5026022;28;20584;-69
2021/09/20 02:38:59;;;;;;;2.70;2.50;;;16.90;99.90;;;;;;5027919;28;20224;-68
2021/09/20 02:41:25;;;;;;;3.10;2.80;;;16.90;99.90;;;;;;5027193;28;20185;-69
2021/09/20 02:43:51;;;;;;;3.40;3.10;;;16.80;99.90;;;;;;5026476;28;20223;-69
2021/09/20 02:46:17;;;;;;;4.77;4.20;;;16.70;99.90;;;;;;5025115;28;20458;-69
2021/09/20 02:48:43;;;;;;;4.40;4.00;;;16.70;99.90;;;;;;5028396;28;20435;-69
2021/09/20 02:51:09;;;;;;;7.00;4.20;;;16.60;99.90;;;;;;5027049;28;20459;-69
2021/09/20 02:53:45;;;;;;;5.60;4.17;;;16.70;99.90;;;;;;5027308;28;20294;-69
2021/09/20 02:56:10;;;;;;;8.93;4.57;;;16.70;99.90;;;;;;5024336;28;20216;-68
2021/09/20 02:58:36;;;;;;;5.23;4.30;;;16.70;99.90;;;;;;5006043;28;20458;-69
2021/09/20 03:01:03;;;;;;;6.87;6.17;;;16.80;99.90;;;;;;5021745;28;20702;-68
2021/09/20 03:03:31;;;;;;;6.23;5.03;;;16.80;99.90;;;;;;5008068;28;20707;-68
2021/09/20 03:05:57;;;;;;;5.40;4.77;;;16.80;99.90;;;;;;4992162;28;20419;-68
2021/09/20 03:08:22;;;;;;;7.67;6.60;;;16.70;99.90;;;;;;5025869;28;20468;-69
2021/09/20 03:10:48;;;;;;;6.83;6.13;;;16.80;99.90;;;;;;5028479;28;20730;-68
2021/09/20 03:13:14;;;;;;;7.10;6.40;;;16.90;99.90;;;;;;5025267;28;20212;-68
2021/09/20 03:15:39;;;;;;;7.10;6.40;;;16.80;99.90;;;;;;5024016;28;20203;-68
2021/09/20 03:18:05;;;;;;;9.23;7.27;;;16.70;99.90;;;;;;5027499;28;20224;-68
2021/09/20 03:20:31;;;;;;;7.00;6.30;;;16.70;99.90;;;;;;5023091;28;20188;-68
2021/09/20 03:22:57;;;;;;;7.57;6.83;;;16.70;99.90;;;;;;5008856;28;20197;-67
2021/09/20 03:25:23;;;;;;;7.60;6.70;;;16.70;99.90;;;;;;5025729;28;20435;-68
2021/09/20 03:27:49;;;;;;;9.73;6.60;;;16.50;99.90;;;;;;5023481;28;20470;-68
2021/09/20 03:30:16;;;;;;;9.00;6.87;;;16.70;99.90;;;;;;5026322;28;20239;-68
2021/09/20 03:32:42;;;;;;;14.90;7.60;;;16.70;99.90;;;;;;5004609;28;20432;-68
2021/09/20 03:35:11;;;;;;;8.17;6.60;;;16.80;99.90;;;;;;5026065;28;20431;-68
2021/09/20 03:37:37;;;;;;;8.63;7.70;;;16.90;99.90;;;;;;5026484;28;20461;-68
2021/09/20 03:40:03;;;;;;;9.10;8.20;;;16.90;99.90;;;;;;5023873;28;20439;-68
2021/09/20 03:42:29;;;;;;;8.83;7.93;;;16.90;99.90;;;;;;5007158;28;20204;-67
2021/09/20 03:44:55;;;;;;;14.43;9.40;;;16.80;99.90;;;;;;5023693;28;20443;-68
2021/09/20 03:47:20;;;;;;;14.23;10.10;;;16.80;99.90;;;;;;5003747;28;20209;-68
2021/09/20 03:49:46;;;;;;;19.60;10.67;;;16.70;99.90;;;;;;5023777;28;20699;-68
2021/09/20 03:52:12;;;;;;;16.20;10.03;;;16.60;99.90;;;;;;5025469;28;20655;-69
2021/09/20 03:54:37;;;;;;;13.67;11.20;;;16.50;99.90;;;;;;5025787;28;20654;-69
2021/09/20 03:57:03;;;;;;;13.97;10.63;;;16.70;99.90;;;;;;5006565;28;20288;-69
2021/09/20 03:59:32;;;;;;;13.87;10.03;;;16.70;99.90;;;;;;5023287;28;20220;-70
2021/09/20 04:01:57;;;;;;;12.30;8.80;;;16.80;99.90;;;;;;5023941;28;20658;-68
2021/09/20 04:04:23;;;;;;;14.10;9.77;;;16.70;99.90;;;;;;5024845;28;20458;-68
2021/09/20 04:06:50;;;;;;;13.53;9.70;;;16.70;99.90;;;;;;5021809;28;20577;-69
2021/09/20 04:09:16;;;;;;;9.77;8.60;;;16.80;99.90;;;;;;5011781;28;20288;-68
2021/09/20 04:11:41;;;;;;;9.83;8.63;;;16.70;99.90;;;;;;5005534;28;20541;-68
2021/09/20 04:14:08;;;;;;;11.07;8.13;;;16.80;99.90;;;;;;5024874;28;20943;-68
2021/09/20 04:16:34;;;;;;;11.80;8.77;;;16.70;99.90;;;;;;5022888;28;20263;-69
2021/09/20 04:19:00;;;;;;;9.30;8.33;;;16.70;99.90;;;;;;5006278;28;20428;-68
2021/09/20 04:21:25;;;;;;;10.90;7.33;;;16.60;99.90;;;;;;5024168;28;20778;-68
2021/09/20 04:23:51;;;;;;;11.70;6.63;;;16.60;99.90;;;;;;5024022;28;20204;-68
2021/09/20 04:26:17;;;;;;;8.10;7.30;;;16.50;99.90;;;;;;5022837;28;20203;-68
2021/09/20 04:28:42;;;;;;;11.50;9.17;;;16.40;99.90;;;;;;5024726;28;20222;-68
2021/09/20 04:31:08;;;;;;;8.50;6.90;;;16.30;99.90;;;;;;5005911;28;20307;-67
2021/09/20 04:33:34;;;;;;;11.73;8.43;;;16.30;99.90;;;;;;5022609;28;20199;-68
2021/09/20 04:35:59;;;;;;;11.50;8.40;;;16.20;99.90;;;;;;5027577;28;20284;-67
2021/09/20 04:38:25;;;;;;;10.73;9.23;;;16.20;99.90;;;;;;5026435;28;20774;-69
2021/09/20 04:40:50;;;;;;;9.57;8.17;;;16.20;99.90;;;;;;5023833;28;20205;-69
2021/09/20 04:43:16;;;;;;;10.60;7.97;;;16.30;99.90;;;;;;5024092;28;20192;-69
2021/09/20 04:45:49;;;;;;;9.00;7.40;;;16.30;99.90;;;;;;5007165;28;20295;-69
2021/09/20 04:48:15;;;;;;;9.43;7.17;;;16.20;99.90;;;;;;5005933;28;20684;-69
2021/09/20 04:50:44;;;;;;;11.77;8.70;;;16.20;99.90;;;;;;5024016;28;20471;-69
2021/09/20 04:53:10;;;;;;;9.47;7.40;;;16.10;99.90;;;;;;5007648;28;20223;-68
2021/09/20 04:55:36;;;;;;;9.13;7.60;;;16.10;99.90;;;;;;5022516;28;20442;-68
2021/09/20 04:58:06;;;;;;;10.30;8.67;;;16.20;99.90;;;;;;5021607;28;20530;-69
2021/09/20 05:00:33;;;;;;;10.37;8.00;;;16.40;99.90;;;;;;5020428;28;20466;-69
2021/09/20 05:02:58;;;;;;;8.47;7.20;;;16.30;99.90;;;;;;5024438;28;20431;-69
2021/09/20 05:05:24;;;;;;;9.53;6.53;;;16.50;99.90;;;;;;5022255;28;20426;-69
2021/09/20 05:07:50;;;;;;;8.87;6.60;;;16.70;99.90;;;;;;5022883;28;20235;-69
2021/09/20 05:10:15;;;;;;;8.70;7.10;;;16.90;99.90;;;;;;5022958;28;20266;-68
2021/09/20 05:12:42;;;;;;;8.10;7.30;;;17.00;99.90;;;;;;5023306;28;20251;-68
2021/09/20 05:15:09;;;;;;;7.40;6.27;;;17.00;99.90;;;;;;5023258;28;20208;-68
2021/09/20 05:17:40;;;;;;;11.77;7.23;;;17.00;99.90;;;;;;5024903;28;20463;-68
2021/09/20 05:20:07;;;;;;;8.33;7.20;;;17.00;99.90;;;;;;5004875;28;20860;-68
2021/09/20 05:22:33;;;;;;;8.70;6.87;;;17.10;99.90;;;;;;5024524;28;20444;-68
2021/09/20 05:25:02;;;;;;;10.47;6.47;;;17.30;99.90;;;;;;5022192;28;20683;-68
2021/09/20 05:27:28;;;;;;;7.53;6.30;;;17.40;99.90;;;;;;5005990;28;20239;-69
2021/09/20 05:29:55;;;;;;;8.77;7.20;;;17.40;99.90;;;;;;5022547;28;20508;-69
2021/09/20 05:32:24;;;;;;;6.70;6.00;;;17.40;99.90;;;;;;5022867;28;20435;-68
2021/09/20 05:34:51;;;;;;;8.83;6.60;;;17.40;99.90;;;;;;5019796;28;20508;-68
2021/09/20 05:37:17;;;;;;;10.13;7.20;;;17.50;99.90;;;;;;5020496;28;20470;-69
2021/09/20 05:39:43;;;;;;;8.50;6.30;;;17.50;99.90;;;;;;5006130;28;20431;-69
2021/09/20 05:42:09;;;;;;;8.40;6.40;;;17.50;99.90;;;;;;5005654;28;20509;-68
2021/09/20 05:44:34;;;;;;;7.13;6.10;;;17.40;99.90;;;;;;5026786;28;20275;-68
2021/09/20 05:47:00;;;;;;;8.97;6.10;;;17.30;99.90;;;;;;5007175;28;20732;-68
2021/09/20 05:49:26;;;;;;;7.00;6.30;;;17.30;99.90;;;;;;5024977;28;20258;-69
2021/09/20 05:51:52;;;;;;;8.10;6.43;;;17.20;99.90;;;;;;5027125;28;20762;-69
2021/09/20 05:54:17;;;;;;;8.50;6.60;;;17.10;99.90;;;;;;5025766;28;20693;-69
2021/09/20 05:56:43;;;;;;;8.50;6.00;;;17.20;99.90;;;;;;5026103;28;20204;-68
2021/09/20 05:59:27;;;;;;;7.53;6.40;;;17.20;99.90;;;;;;5027092;28;20219;-69
2021/09/20 06:01:53;;;;;;;8.67;6.70;;;17.20;99.90;;;;;;5013616;28;20193;-68
2021/09/20 06:04:20;;;;;;;7.60;6.83;;;17.20;99.90;;;;;;5027367;28;20589;-69
2021/09/20 06:06:45;;;;;;;7.63;6.83;;;17.10;99.90;;;;;;5025499;28;20283;-69
2021/09/20 06:09:11;;;;;;;6.70;6.00;;;17.20;99.90;;;;;;5029347;28;20941;-68
2021/09/20 06:11:40;;;;;;;7.20;6.50;;;17.20;99.90;;;;;;5030578;28;20214;-68
2021/09/20 06:14:06;;;;;;;7.20;6.50;;;17.20;99.90;;;;;;4994490;28;20287;-68
2021/09/20 06:16:32;;;;;;;7.33;6.40;;;17.10;99.90;;;;;;5028074;28;20973;-69
2021/09/20 06:18:57;;;;;;;20.50;7.13;;;17.20;99.90;;;;;;5028670;28;20196;-69
2021/09/20 06:21:23;;;;;;;8.07;6.53;;;17.30;99.90;;;;;;5027330;28;20292;-68
2021/09/20 06:23:48;;;;;;;7.63;5.87;;;17.30;99.90;;;;;;5023882;28;20298;-69
2021/09/20 06:26:14;;;;;;;6.33;5.53;;;17.30;99.90;;;;;;4974296;28;20189;-68
2021/09/20 06:28:40;;;;;;;7.43;6.43;;;17.30;99.90;;;;;;5026706;28;20647;-69
2021/09/20 06:31:05;;;;;;;7.27;6.33;;;17.50;99.90;;;;;;5027830;28;20674;-68
2021/09/20 06:33:32;;;;;;;8.63;6.53;;;17.50;99.90;;;;;;5027779;28;20180;-69
2021/09/20 06:35:59;;;;;;;9.37;6.60;;;17.50;99.90;;;;;;5026133;28;20188;-68
2021/09/20 06:38:25;;;;;;;7.63;6.90;;;17.40;99.90;;;;;;5012703;28;20474;-68
2021/09/20 06:40:51;;;;;;;6.97;6.27;;;17.50;99.90;;;;;;5027739;28;20454;-69
2021/09/20 06:43:16;;;;;;;8.60;6.47;;;17.60;99.90;;;;;;5026942;28;20471;-69
2021/09/20 06:45:43;;;;;;;7.80;6.97;;;17.70;99.90;;;;;;5029225;28;20884;-70
2021/09/20 06:48:08;;;;;;;7.30;6.07;;;17.70;99.90;;;;;;5026472;28;20213;-69
2021/09/20 06:50:34;;;;;;;8.90;7.00;;;17.70;99.90;;;;;;5008399;28;20457;-68
2021/09/20 06:53:00;;;;;;;7.63;6.47;;;17.70;99.90;;;;;;5024604;28;20700;-68
2021/09/20 06:55:25;;;;;;;7.40;6.60;;;17.80;99.90;;;;;;5023472;28;20647;-69
2021/09/20 06:57:57;;;;;;;7.67;6.57;;;17.70;99.90;;;;;;5027756;28;20857;-69
2021/09/20 07:00:23;;;;;;;7.57;6.30;;;17.80;99.90;;;;;;5010076;28;20203;-69
2021/09/20 07:05:19;;;;;;;10.73;6.83;;;17.90;99.90;;;;;;5021404;28;20552;-67
2021/09/20 07:07:47;;;;;;;8.03;7.23;;;18.00;99.90;;;;;;5025412;28;20443;-67
2021/09/20 07:10:17;;;;;;;11.70;8.60;;;18.00;99.90;;;;;;5025555;28;21001;-64
2021/09/20 07:12:44;;;;;;;9.53;7.30;;;18.00;99.90;;;;;;5024022;28;20500;-63
2021/09/20 07:15:12;;;;;;;8.73;6.90;;;18.10;99.90;;;;;;5021964;28;20716;-67
2021/09/20 07:17:38;;;;;;;8.83;7.93;;;18.10;99.90;;;;;;5023592;28;20489;-65
2021/09/20 07:20:07;;;;;;;8.27;7.40;;;18.20;99.90;;;;;;5023016;28;20443;-65
2021/09/20 07:22:34;;;;;;;10.63;7.90;;;18.00;99.90;;;;;;5024458;28;20219;-65
2021/09/20 07:25:00;;;;;;;13.20;7.93;;;18.00;99.90;;;;;;5008422;28;20462;-65
2021/09/20 07:27:25;;;;;;;12.87;8.63;;;17.80;99.90;;;;;;5023339;28;20462;-68
2021/09/20 07:29:51;;;;;;;11.83;8.70;;;17.90;99.90;;;;;;5011184;28;20204;-64
2021/09/20 07:32:17;;;;;;;10.60;7.47;;;17.90;99.90;;;;;;5026595;28;20249;-63
2021/09/20 07:34:47;;;;;;;10.83;8.20;;;17.90;99.90;;;;;;5025692;28;20625;-64
2021/09/20 07:37:14;;;;;;;11.90;10.10;;;18.00;99.90;;;;;;5022499;28;20469;-66
2021/09/20 07:39:41;;;;;;;11.60;9.20;;;18.00;99.90;;;;;;5023465;28;20909;-67
2021/09/20 07:42:08;;;;;;;7.67;6.97;;;18.20;99.90;;;;;;5023446;28;20435;-63
2021/09/20 07:44:34;;;;;;;12.40;8.70;;;18.20;99.90;;;;;;5009709;28;20420;-63
2021/09/20 07:47:02;;;;;;;11.43;7.87;;;18.10;99.90;;;;;;5021836;28;20977;-62
2021/09/20 07:49:27;;;;;;;11.43;9.17;;;18.20;99.90;;;;;;5022882;28;20510;-63
2021/09/20 07:51:53;;;;;;;9.30;8.40;;;18.20;99.90;;;;;;5064420;23;20506;-65
2021/09/20 07:54:19;;;;;;;12.43;8.60;;;18.20;99.90;;;;;;5006368;28;20578;-68
2021/09/20 07:56:44;;;;;;;17.60;9.53;;;18.20;99.90;;;;;;5027018;28;20236;-67
2021/09/20 07:59:10;;;;;;;10.90;8.80;;;18.20;99.90;;;;;;5023371;28;20681;-67
2021/09/20 08:01:36;;;;;;;12.73;9.30;;;18.00;99.90;;;;;;5007782;28;20291;-67
2021/09/20 08:04:01;;;;;;;12.23;9.33;;;18.00;99.90;;;;;;5023961;28;20267;-67
2021/09/20 08:06:28;;;;;;;11.67;9.13;;;18.00;99.90;;;;;;5023690;28;20216;-67
2021/09/20 08:08:54;;;;;;;11.90;8.93;;;18.00;99.90;;;;;;5025009;28;20203;-67
2021/09/20 08:11:20;;;;;;;12.30;9.00;;;17.90;99.90;;;;;;5008429;28;20876;-67
2021/09/20 08:13:47;;;;;;;11.40;8.50;;;17.90;99.90;;;;;;5023518;28;20447;-67
2021/09/20 08:16:13;;;;;;;11.60;9.70;;;17.90;99.90;;;;;;5024426;28;20469;-68
2021/09/20 08:18:39;;;;;;;12.10;8.90;;;17.90;99.90;;;;;;5022968;28;20279;-67
2021/09/20 08:21:06;;;;;;;13.23;9.40;;;17.90;99.90;;;;;;5022073;28;20242;-67
2021/09/20 08:23:33;;;;;;;11.20;8.93;;;18.10;99.90;;;;;;5007757;28;20502;-68
2021/09/20 08:25:59;;;;;;;10.73;8.53;;;18.10;99.90;;;;;;5020534;28;20432;-67
2021/09/20 08:28:25;;;;;;;13.77;9.07;;;18.20;99.90;;;;;;5026223;28;20481;-68
2021/09/20 08:30:51;;;;;;;12.50;9.60;;;18.30;99.90;;;;;;5022967;28;20204;-67
2021/09/20 08:33:17;;;;;;;14.30;9.30;;;18.10;99.90;;;;;;5003664;28;20455;-67
2021/09/20 08:35:43;;;;;;;11.60;9.10;;;18.20;99.90;;;;;;5021751;28;20546;-67
2021/09/20 08:38:11;;;;;;;10.33;8.20;;;18.30;99.90;;;;;;5023604;28;20866;-67
2021/09/20 08:40:37;;;;;;;10.70;8.20;;;18.20;99.90;;;;;;5021565;28;20287;-67
2021/09/20 08:43:03;;;;;;;13.10;7.90;;;18.30;99.90;;;;;;5021769;28;20902;-67
2021/09/20 08:45:32;;;;;;;12.53;9.17;;;18.50;99.90;;;;;;5021492;28;20924;-65
2021/09/20 08:47:59;;;;;;;12.37;9.70;;;18.50;99.90;;;;;;5006310;28;20524;-66
2021/09/20 08:50:34;;;;;;;11.20;8.97;;;18.30;99.90;;;;;;5020227;28;20552;-67
2021/09/20 08:53:01;;;;;;;8.83;7.80;;;18.60;99.90;;;;;;5002737;28;20431;-67
2021/09/20 08:55:27;;;;;;;8.63;7.63;;;18.50;99.90;;;;;;5006299;28;20423;-67
2021/09/20 08:57:53;;;;;;;13.07;9.17;;;18.50;99.90;;;;;;5024947;28;20450;-66
2021/09/20 09:00:19;;;;;;;9.10;8.00;;;18.70;99.90;;;;;;5021556;28;20439;-67
2021/09/20 09:02:45;;;;;;;11.40;8.33;;;18.90;99.90;;;;;;5024620;28;20200;-68
2021/09/20 09:05:23;;;;;;;9.50;8.50;;;19.00;99.90;;;;;;5005196;28;20184;-68
2021/09/20 09:08:07;;;;;;;12.00;8.43;;;19.00;99.90;;;;;;5005353;28;20223;-67
2021/09/20 09:10:36;;;;;;;9.20;8.00;;;19.00;99.90;;;;;;5021073;28;21044;-67
2021/09/20 09:13:07;;;;;;;9.50;7.90;;;19.00;99.90;;;;;;5006124;28;20440;-67
2021/09/20 09:15:40;;;;;;;11.87;9.40;;;18.90;99.90;;;;;;5005096;28;20438;-67
2021/09/20 09:18:07;;;;;;;9.57;7.93;;;19.00;99.90;;;;;;5022752;28;20473;-67
2021/09/20 09:20:35;;;;;;;10.10;8.47;;;19.00;99.90;;;;;;5020832;28;20942;-67
2021/09/20 09:23:07;;;;;;;11.17;7.50;;;19.00;99.90;;;;;;5024131;28;20422;-67
2021/09/20 09:25:48;;;;;;;10.70;8.73;;;19.00;99.90;;;;;;5004059;28;20487;-67
2021/09/20 09:28:23;;;;;;;11.60;8.53;;;18.90;99.90;;;;;;4973262;28;20463;-66
2021/09/20 09:31:01;;;;;;;9.50;8.50;;;19.00;99.90;;;;;;5001346;28;20482;-67
2021/09/20 09:33:42;;;;;;;10.40;8.80;;;18.90;99.90;;;;;;5021940;28;20418;-66
2021/09/20 09:36:08;;;;;;;10.63;9.40;;;18.70;99.90;;;;;;5018860;28;20542;-66
2021/09/20 09:38:35;;;;;;;11.03;8.40;;;18.90;99.90;;;;;;5022229;28;20434;-67
2021/09/20 09:41:03;;;;;;;9.63;8.63;;;19.00;99.90;;;;;;5022645;28;20486;-67
2021/09/20 09:43:40;;;;;;;10.40;8.47;;;19.00;99.90;;;;;;5019323;28;20446;-67
2021/09/20 09:46:25;;;;;;;10.33;9.23;;;19.10;99.90;;;;;;5023786;28;20419;-66
2021/09/20 09:48:53;;;;;;;12.20;9.37;;;19.10;99.90;;;;;;5024055;28;20989;-66
2021/09/20 09:51:19;;;;;;;9.80;8.80;;;19.20;99.90;;;;;;5022553;28;20931;-65
2021/09/20 09:53:47;;;;;;;11.20;8.53;;;19.40;99.90;;;;;;5021335;28;20535;-66
2021/09/20 09:56:16;;;;;;;10.07;8.50;;;19.40;99.90;;;;;;5021447;28;20185;-68
2021/09/20 09:59:07;;;;;;;9.93;8.70;;;19.40;99.90;;;;;;5020222;28;20519;-66
2021/09/20 10:01:42;;;;;;;9.87;8.53;;;19.40;99.90;;;;;;5021085;28;20450;-67
2021/09/20 10:04:32;;;;;;;9.90;8.20;;;19.30;99.90;;;;;;4991133;28;21736;-67
2021/09/20 10:06:58;;;;;;;10.83;8.20;;;19.40;99.90;;;;;;5020116;28;20442;-66
2021/09/20 10:09:27;;;;;;;11.97;9.93;;;19.30;99.90;;;;;;5021854;28;20522;-66
2021/09/20 10:11:55;;;;;;;10.83;8.50;;;19.30;99.90;;;;;;5021976;28;20568;-66
2021/09/20 10:14:21;;;;;;;11.93;10.13;;;19.40;99.90;;;;;;5021635;28;20431;-65
2021/09/20 10:16:49;;;;;;;9.90;8.87;;;19.40;99.90;;;;;;5007292;28;20821;-67
2021/09/20 10:19:15;;;;;;;9.40;8.23;;;19.30;99.90;;;;;;5021355;28;20923;-67
2021/09/20 10:21:42;;;;;;;11.67;9.20;;;19.30;99.90;;;;;;5022645;28;20449;-67
2021/09/20 10:24:09;;;;;;;11.33;9.47;;;19.40;99.90;;;;;;5019316;28;20439;-67
2021/09/20 10:26:35;;;;;;;10.83;8.77;;;19.30;99.90;;;;;;5020376;28;20462;-66
2021/09/20 10:29:02;;;;;;;11.13;9.60;;;19.30;99.90;;;;;;5005239;28;20933;-67
2021/09/20 10:31:29;;;;;;;11.53;9.63;;;19.10;99.90;;;;;;5024937;28;20573;-66
2021/09/20 10:34:20;;;;;;;11.70;9.63;;;19.10;99.90;;;;;;5006831;28;20502;-67
2021/09/20 10:36:54;;;;;;;13.27;9.73;;;19.20;99.90;;;;;;5025391;28;20562;-67
2021/09/20 10:39:44;;;;;;;13.13;10.90;;;19.20;99.90;;;;;;5023573;28;20411;-67
2021/09/20 10:42:11;;;;;;;15.30;11.53;;;19.10;99.90;;;;;;5016305;28;20837;-67
2021/09/20 10:44:38;;;;;;;13.70;10.80;;;19.10;99.90;;;;;;5023643;28;20736;-67
2021/09/20 10:47:16;;;;;;;15.47;11.60;;;19.00;99.90;;;;;;5024793;28;20531;-66
2021/09/20 10:49:53;;;;;;;12.53;10.10;;;19.10;99.90;;;;;;5009039;28;20487;-67
2021/09/20 10:52:18;;;;;;;13.80;12.03;;;19.10;99.90;;;;;;5025730;28;20435;-67
2021/09/20 10:55:06;;;;;;;19.43;12.00;;;19.20;99.90;;;;;;5007368;28;20437;-67
2021/09/20 10:57:32;;;;;;;15.57;11.43;;;19.20;99.90;;;;;;5023794;28;20200;-66
2021/09/20 11:00:23;;;;;;;14.50;11.90;;;19.20;99.90;;;;;;5024136;28;20442;-66
2021/09/20 11:02:49;;;;;;;14.60;11.40;;;19.10;99.90;;;;;;5006497;28;20630;-66
2021/09/20 11:05:15;;;;;;;19.63;11.87;;;19.20;99.90;;;;;;5025965;28;20458;-66
2021/09/20 11:07:46;;;;;;;12.47;9.77;;;19.30;99.90;;;;;;5023221;28;20636;-67
2021/09/20 11:10:12;;;;;;;16.30;11.80;;;19.30;99.90;;;;;;5024630;28;20462;-66
2021/09/20 11:13:01;;;;;;;16.17;11.13;;;19.30;99.90;;;;;;5026558;28;20439;-67
2021/09/20 11:15:35;;;;;;;13.70;10.90;;;19.40;99.90;;;;;;5023525;28;20188;-67
2021/09/20 11:18:01;;;;;;;14.53;11.20;;;19.50;99.90;;;;;;5022425;28;20446;-67
2021/09/20 11:20:36;;;;;;;13.00;10.70;;;19.50;99.90;;;;;;5026662;28;20454;-67
2021/09/20 11:23:24;;;;;;;15.83;10.80;;;19.60;99.90;;;;;;5004766;28;20580;-67
2021/09/20 11:26:04;;;;;;;17.17;11.40;;;19.60;99.90;;;;;;5002252;28;20836;-67
2021/09/20 11:28:35;;;;;;;14.20;11.10;;;19.80;99.90;;;;;;5008810;28;20451;-67
2021/09/20 11:31:04;;;;;;;14.60;10.27;;;19.90;99.90;;;;;;5022311;28;20467;-66
2021/09/20 11:33:44;;;;;;;12.30;10.50;;;20.00;99.90;;;;;;5023828;28;20521;-68
2021/09/20 11:36:16;;;;;;;10.37;9.13;;;19.80;99.90;;;;;;5027566;28;20445;-67
2021/09/20 11:38:42;;;;;;;14.20;10.50;;;20.00;99.90;;;;;;4992896;28;20430;-66
2021/09/20 11:41:19;;;;;;;12.33;10.83;;;20.00;99.90;;;;;;5023039;28;20443;-66
2021/09/20 11:43:44;;;;;;;13.10;9.90;;;20.30;99.90;;;;;;5006226;28;20203;-67
2021/09/20 11:46:10;;;;;;;11.40;9.43;;;20.30;99.90;;;;;;5022500;28;20441;-67
2021/09/20 11:48:36;;;;;;;14.47;9.77;;;20.30;99.90;;;;;;5019412;28;20285;-67
2021/09/20 11:51:02;;;;;;;12.30;9.40;;;20.50;99.90;;;;;;5009819;28;20822;-66
2021/09/20 11:53:31;;;;;;;10.30;8.90;;;20.50;99.90;;;;;;5004370;28;20242;-67
2021/09/20 11:55:57;;;;;;;12.37;9.77;;;20.70;99.90;;;;;;5025085;28;20180;-67
2021/09/20 11:58:23;;;;;;;9.10;7.60;;;21.10;99.90;;;;;;5023469;28;20451;-67
2021/09/20 12:00:52;;;;;;;12.90;9.03;;;21.30;99.90;;;;;;5021961;28;20204;-67
2021/09/20 12:03:22;;;;;;;12.60;9.23;;;21.30;99.90;;;;;;5024890;28;20206;-67
2021/09/20 12:05:52;;;;;;;10.70;9.40;;;21.30;99.90;;;;;;5008073;28;20442;-67
2021/09/20 12:08:21;;;;;;;12.83;10.27;;;21.30;99.90;;;;;;5024683;28;20477;-66
2021/09/20 12:10:52;;;;;;;10.23;9.17;;;21.50;99.90;;;;;;5029857;28;21803;-67
2021/09/20 12:13:25;;;;;;;10.10;9.10;;;22.00;99.90;;;;;;5021261;28;20423;-66
2021/09/20 12:15:54;;;;;;;10.60;8.80;;;22.70;99.90;;;;;;5020569;28;20522;-66
2021/09/20 12:18:26;;;;;;;9.20;8.17;;;23.00;99.90;;;;;;5023505;28;20466;-67
2021/09/20 12:21:13;;;;;;;9.53;8.63;;;23.60;99.90;;;;;;5023127;28;20501;-66
2021/09/20 12:23:45;;;;;;;8.83;7.90;;;24.20;99.90;;;;;;5004179;28;20493;-67
2021/09/20 12:26:15;;;;;;;9.70;8.00;;;24.10;99.90;;;;;;5023385;28;20423;-66
2021/09/20 12:28:48;;;;;;;15.20;11.70;;;23.90;99.90;;;;;;5004929;28;20930;-67
2021/09/20 12:31:23;;;;;;;11.90;8.50;;;24.30;99.90;;;;;;4990923;28;20537;-66
2021/09/20 12:33:57;;;;;;;12.50;8.40;;;24.10;99.90;;;;;;5007535;28;20452;-66
2021/09/20 12:36:39;;;;;;;10.13;9.10;;;23.90;99.90;;;;;;5023204;28;20431;-66
2021/09/20 12:39:10;;;;;;;11.30;8.83;;;23.80;99.90;;;;;;5024465;28;20426;-66
2021/09/20 12:42:07;;;;;;;8.80;7.90;;;23.90;99.90;;;;;;5023913;28;20439;-66
2021/09/20 12:44:48;;;;;;;9.43;7.93;;;24.10;99.90;;;;;;5022239;28;20450;-66
2021/09/20 12:47:25;;;;;;;8.53;7.73;;;24.30;99.90;;;;;;5022105;28;20815;-66